ピアルコ国際空港(ポートオブスペイン)の過去48時間の天気

ピアルコ国際空港(ポートオブスペイン) (Piarco International Airport, Trinidad)

現在時刻: 2/27 10:57 AST (2/27 14:57 UTC) 以下の時間は現地時間です。

過去48時間のMETAR気象情報
時間 風向 風速(m/s) 視程 気温(℃) 湿度(%) 気圧(hPa) 天気現象
27 10:00 東南東 5 10km以上 28 62 1016
27 09:00 東南東 3 10km以上 27 70 1016
27 08:00 静穏 0 10km以上 26 74 1015
27 07:00 静穏 0 10km以上 23 89 1014
27 06:00 静穏 0 10km以上 22 94 1013
27 05:00 静穏 0 10km以上 22 88 1013
27 04:00 静穏 0 10km以上 22 88 1013
27 03:00 静穏 0 10km以上 23 89 1013
27 02:00 静穏 0 10km以上 23 89 1013
27 01:00 静穏 0 10km以上 23 89 1014
27 00:00 静穏 0 10km以上 23 89 1014
26 23:00 2 10km以上 24 83 1014
26 22:00 東南東 2 10km以上 25 78 1014
26 21:00 東南東 3 10km以上 25 78 1014
26 20:00 4 10km以上 25 78 1013
26 19:00 3 10km以上 26 74 1013
26 18:00 南東 3 10km以上 27 70 1012
26 17:00 南東 5 10km以上 31 52 1012
26 16:00 南東 5 10km以上 31 52 1012
26 15:00 南東 5 10km以上 31 52 1012
26 14:00 南東 6 10km以上 30 62 1013
26 13:00 東南東 7 10km以上 31 55 1014
26 12:00 東南東 5 10km以上 30 59 1015
26 11:00 東南東 6 10km以上 30 59 1015
26 10:00 東南東 6 10km以上 29 62 1016
26 09:00 東南東 4 10km以上 28 74 1015
26 08:00 静穏 0 10km以上 24 89 1015
26 07:00 静穏 0 10km以上 22 94 1014
26 06:00 静穏 0 10km以上 22 94 1013
26 05:00 静穏 0 10km以上 22 88 1013
26 04:00 静穏 0 10km以上 23 89 1012
26 03:00 静穏 0 10km以上 23 89 1012
26 02:00 静穏 0 10km以上 24 83 1012
26 01:00 静穏 0 10km以上 24 83 1013
26 00:00 静穏 0 10km以上 25 83 1013
25 23:00 静穏 0 10km以上 25 78 1014
25 22:00 東南東 3 10km以上 26 74 1014
25 21:00 3 10km以上 26 74 1013
25 20:00 3 10km以上 26 74 1013
25 19:00 3 10km以上 26 74 1012
25 18:00 東南東 3 10km以上 28 66 1012
25 17:00 東南東 4 10km以上 29 62 1012
25 16:00 6 10km以上 30 52 1012
25 15:00 東南東 5 10km以上 31 52 1012
25 14:00 南東 6 10km以上 31 52 1013
25 13:00 東南東 7 10km以上 31 52 1014
25 12:00 東南東 6 10km以上 30 55 1014
25 11:00 東南東 7 10km以上 30 55 1015
TTPP 271400Z 11010KT 9999 BKN020 28/20 Q1016 NOSIG
TTPP 271300Z 11005KT 9999 SCT020 27/21 Q1016 NOSIG
TTPP 271200Z 00000KT 9999 FEW018 26/21 Q1015 NOSIG
TTPP 271100Z 00000KT 9999 FEW014 23/21 Q1014 NOSIG
TTPP 271000Z 00000KT 9999 FEW014 22/21 Q1013 NOSIG
TTPP 270900Z 00000KT 9999 FEW010 22/20 Q1013 NOSIG
TTPP 270800Z 00000KT 9999 FEW015 22/20 Q1013 NOSIG
TTPP 270700Z 00000KT 9999 FEW015 23/21 Q1013 NOSIG
TTPP 270600Z 00000KT 9999 FEW015 23/21 Q1013 NOSIG
TTPP 270500Z 00000KT 9999 FEW015 23/21 Q1014 NOSIG
TTPP 270400Z 00000KT 9999 FEW015 23/21 Q1014 NOSIG
TTPP 270300Z 09004KT 9999 FEW015 24/21 Q1014 NOSIG
TTPP 270200Z 11004KT CAVOK 25/21 Q1014 NOSIG
TTPP 270100Z 11006KT CAVOK 25/21 Q1014 NOSIG
TTPP 270000Z 10008KT 9999 FEW016 25/21 Q1013 NOSIG
TTPP 262300Z 10006KT 9999 FEW018 26/21 Q1013 NOSIG
TTPP 262200Z 14006KT 9999 FEW020 27/21 Q1012 NOSIG
TTPP 262100Z 13010KT 9999 FEW020 31/20 Q1012 NOSIG
TTPP 262000Z 13010KT 9999 FEW022 31/20 Q1012 NOSIG
TTPP 261900Z 13010KT 9999 FEW022 31/20 Q1012 NOSIG
TTPP 261800Z 13011KT 060V210 9999 FEW020 30/22 Q1013 NOSIG
TTPP 261700Z 11013KT 9999 SCT026 31/21 Q1014 NOSIG
TTPP 261600Z 12010KT 9999 SCT022 30/21 Q1015 NOSIG
TTPP 261500Z 12011KT 9999 SCT022 30/21 Q1015 NOSIG
TTPP 261400Z 12011KT 9999 SCT020 29/21 Q1016 NOSIG
TTPP 261300Z 12007KT 9999 SCT020 28/23 Q1015 NOSIG
TTPP 261200Z 00000KT 9999 SCT020 24/22 Q1015 NOSIG
TTPP 261100Z 00000KT 9999 SCT018 22/21 Q1014 NOSIG
TTPP 261000Z 00000KT 9999 FEW018 22/21 Q1013 NOSIG
TTPP 260900Z 00000KT 9999 FEW018 22/20 Q1013 NOSIG
TTPP 260800Z 00000KT 9999 FEW018 23/21 Q1012 NOSIG
TTPP 260700Z 00000KT 9999 FEW016 23/21 Q1012 NOSIG
TTPP 260600Z 00000KT 9999 FEW016 24/21 Q1012 NOSIG
TTPP 260500Z 00000KT 9999 FEW016 24/21 Q1013 NOSIG
TTPP 260400Z 00000KT 9999 FEW018 25/22 Q1013 NOSIG
TTPP 260300Z 00000KT 9999 FEW018 25/21 Q1014 NOSIG
TTPP 260200Z 12006KT 9999 FEW018 SCT040 26/21 Q1014 NOSIG
TTPP 260100Z 10006KT 9999 FEW018 26/21 Q1013 NOSIG
TTPP 260000Z 10005KT 9999 FEW018 26/21 Q1013 NOSIG
TTPP 252300Z 10006KT 9999 FEW022 26/21 Q1012 NOSIG
TTPP 252200Z 12006KT 9999 FEW025 28/21 Q1012 NOSIG
TTPP 252100Z 12007KT 9999 FEW025 29/21 Q1012 NOSIG
TTPP 252000Z 10011KT 9999 FEW025 30/19 Q1012 NOSIG
TTPP 251900Z 12010KT 9999 FEW025 31/20 Q1012 NOSIG
TTPP 251800Z 13012KT 9999 FEW025 31/20 Q1013 NOSIG
TTPP 251700Z 11014KT 9999 SCT025 31/20 Q1014 NOSIG
TTPP 251600Z 11012KT 9999 SCT025 30/20 Q1014 NOSIG
TTPP 251500Z 11013KT 9999 SCT025 30/20 Q1015 NOSIG